Terminal Aerodrome Forecast
Issued by NWS

Home | Current Version | Previous Version | Text Only | Print | Product List | Glossary On
Versions: 1 2 3 4 5 6 7 8 9 10 11 12 13 14 15 16 17 18 19 20 21 22 23 24 25 26 27 28 29 30 31 32
000
FTUS45 KSLC 101841 AAA
TAFENV
TAF AMD
KENV 101841Z 1019/1118 10008KT P6SM SCT080 SCT120
     FM102200 16009KT P6SM SCT070 BKN120
     FM111400 16008KT P6SM VCSH SCT070 BKN100
      AMD LTD TO CLD VIS AND WIND=

USA.gov is the U.S. government's official web portal to all federal, state and local government web resources and services.